sensor_id;sensor_type;location;lat;lon;timestamp;pressure;altitude;pressure_sealevel;temperature;humidity
13029;BME280;6581;42.662;23.402;2022-12-10T00:01:44;94723.78;;;9.12;100.00
13029;BME280;6581;42.662;23.402;2022-12-10T00:04:12;94729.06;;;9.12;100.00
13029;BME280;6581;42.662;23.402;2022-12-10T00:06:40;94711.78;;;9.21;100.00
13029;BME280;6581;42.662;23.402;2022-12-10T00:09:12;94728.47;;;9.29;100.00
13029;BME280;6581;42.662;23.402;2022-12-10T00:11:41;94728.09;;;9.30;100.00
13029;BME280;6581;42.662;23.402;2022-12-10T00:14:09;94716.78;;;9.30;100.00
13029;BME280;6581;42.662;23.402;2022-12-10T00:16:38;94704.00;;;9.35;100.00
13029;BME280;6581;42.662;23.402;2022-12-10T00:19:05;94721.41;;;9.40;100.00
13029;BME280;6581;42.662;23.402;2022-12-10T00:21:33;94710.03;;;9.36;100.00
13029;BME280;6581;42.662;23.402;2022-12-10T00:24:02;94700.22;;;9.37;100.00
13029;BME280;6581;42.662;23.402;2022-12-10T00:26:31;94696.16;;;9.43;100.00
13029;BME280;6581;42.662;23.402;2022-12-10T00:29:02;94697.72;;;9.51;100.00
13029;BME280;6581;42.662;23.402;2022-12-10T00:31:31;94687.97;;;9.58;100.00
13029;BME280;6581;42.662;23.402;2022-12-10T00:34:00;94691.75;;;9.57;100.00
13029;BME280;6581;42.662;23.402;2022-12-10T00:36:29;94707.53;;;9.50;100.00
13029;BME280;6581;42.662;23.402;2022-12-10T00:38:58;94712.81;;;9.50;100.00
13029;BME280;6581;42.662;23.402;2022-12-10T00:41:27;94717.44;;;9.57;100.00
13029;BME280;6581;42.662;23.402;2022-12-10T00:43:55;94716.72;;;9.63;100.00
13029;BME280;6581;42.662;23.402;2022-12-10T00:46:27;94709.56;;;9.67;100.00
13029;BME280;6581;42.662;23.402;2022-12-10T00:48:54;94714.13;;;9.67;100.00
13029;BME280;6581;42.662;23.402;2022-12-10T00:51:23;94712.56;;;9.62;100.00
13029;BME280;6581;42.662;23.402;2022-12-10T00:53:53;94707.63;;;9.57;100.00
13029;BME280;6581;42.662;23.402;2022-12-10T00:56:22;94703.88;;;9.62;100.00
13029;BME280;6581;42.662;23.402;2022-12-10T00:58:50;94709.81;;;9.52;100.00
13029;BME280;6581;42.662;23.402;2022-12-10T01:01:20;94714.03;;;9.56;100.00
13029;BME280;6581;42.662;23.402;2022-12-10T01:03:50;94715.13;;;9.52;100.00
13029;BME280;6581;42.662;23.402;2022-12-10T01:06:20;94710.25;;;9.57;100.00
13029;BME280;6581;42.662;23.402;2022-12-10T01:08:49;94709.88;;;9.59;100.00
13029;BME280;6581;42.662;23.402;2022-12-10T01:11:19;94718.59;;;9.63;100.00
13029;BME280;6581;42.662;23.402;2022-12-10T01:13:48;94729.34;;;9.40;100.00
13029;BME280;6581;42.662;23.402;2022-12-10T01:16:17;94706.50;;;9.21;100.00
13029;BME280;6581;42.662;23.402;2022-12-10T01:18:46;94705.16;;;9.38;100.00
13029;BME280;6581;42.662;23.402;2022-12-10T01:21:16;94703.41;;;9.53;100.00
13029;BME280;6581;42.662;23.402;2022-12-10T01:23:46;94689.84;;;9.58;100.00
13029;BME280;6581;42.662;23.402;2022-12-10T01:26:15;94688.81;;;9.69;100.00
13029;BME280;6581;42.662;23.402;2022-12-10T01:28:43;94681.25;;;9.68;100.00
13029;BME280;6581;42.662;23.402;2022-12-10T01:31:15;94694.81;;;9.63;100.00
13029;BME280;6581;42.662;23.402;2022-12-10T01:33:43;94699.00;;;9.67;100.00
13029;BME280;6581;42.662;23.402;2022-12-10T01:36:12;94697.16;;;9.71;100.00
13029;BME280;6581;42.662;23.402;2022-12-10T01:38:42;94685.09;;;9.74;100.00
13029;BME280;6581;42.662;23.402;2022-12-10T01:41:14;94679.38;;;9.72;100.00
13029;BME280;6581;42.662;23.402;2022-12-10T01:43:51;94678.28;;;9.76;100.00
13029;BME280;6581;42.662;23.402;2022-12-10T01:46:19;94693.81;;;9.78;100.00
13029;BME280;6581;42.662;23.402;2022-12-10T01:48:47;94700.16;;;9.70;100.00
13029;BME280;6581;42.662;23.402;2022-12-10T01:51:15;94668.78;;;9.68;100.00
13029;BME280;6581;42.662;23.402;2022-12-10T01:53:44;94669.19;;;9.67;100.00
13029;BME280;6581;42.662;23.402;2022-12-10T01:56:12;94683.94;;;9.71;100.00
13029;BME280;6581;42.662;23.402;2022-12-10T01:58:42;94682.09;;;9.79;100.00
13029;BME280;6581;42.662;23.402;2022-12-10T02:01:14;94681.34;;;9.78;100.00
13029;BME280;6581;42.662;23.402;2022-12-10T02:03:52;94676.03;;;9.75;100.00
13029;BME280;6581;42.662;23.402;2022-12-10T02:06:31;94679.47;;;9.79;100.00
13029;BME280;6581;42.662;23.402;2022-12-10T02:09:09;94682.09;;;9.75;100.00
13029;BME280;6581;42.662;23.402;2022-12-10T02:11:42;94673.81;;;9.81;100.00
13029;BME280;6581;42.662;23.402;2022-12-10T02:14:17;94667.81;;;9.87;100.00
13029;BME280;6581;42.662;23.402;2022-12-10T02:16:53;94688.59;;;9.85;100.00
13029;BME280;6581;42.662;23.402;2022-12-10T02:19:37;94685.50;;;9.76;100.00
13029;BME280;6581;42.662;23.402;2022-12-10T02:22:08;94673.81;;;9.81;100.00
13029;BME280;6581;42.662;23.402;2022-12-10T02:24:39;94709.28;;;9.76;100.00
13029;BME280;6581;42.662;23.402;2022-12-10T02:27:23;94674.81;;;9.65;100.00
13029;BME280;6581;42.662;23.402;2022-12-10T02:29:54;94653.66;;;9.65;100.00
13029;BME280;6581;42.662;23.402;2022-12-10T02:32:25;94657.84;;;9.70;100.00
13029;BME280;6581;42.662;23.402;2022-12-10T02:35:01;94666.13;;;9.68;100.00
13029;BME280;6581;42.662;23.402;2022-12-10T02:37:33;94651.81;;;9.69;100.00
13029;BME280;6581;42.662;23.402;2022-12-10T02:40:06;94653.34;;;9.74;100.00
13029;BME280;6581;42.662;23.402;2022-12-10T02:42:41;94648.47;;;9.79;100.00
13029;BME280;6581;42.662;23.402;2022-12-10T02:45:12;94656.09;;;9.88;100.00
13029;BME280;6581;42.662;23.402;2022-12-10T02:47:40;94640.22;;;9.88;100.00
13029;BME280;6581;42.662;23.402;2022-12-10T02:50:10;94652.34;;;9.89;100.00
13029;BME280;6581;42.662;23.402;2022-12-10T02:52:39;94625.41;;;9.76;100.00
13029;BME280;6581;42.662;23.402;2022-12-10T02:55:10;94639.44;;;9.81;100.00
13029;BME280;6581;42.662;23.402;2022-12-10T02:57:46;94625.78;;;9.75;100.00
13029;BME280;6581;42.662;23.402;2022-12-10T03:00:19;94641.25;;;9.73;100.00
13029;BME280;6581;42.662;23.402;2022-12-10T03:03:07;94647.69;;;9.75;100.00
13029;BME280;6581;42.662;23.402;2022-12-10T03:05:45;94652.59;;;9.77;100.00
13029;BME280;6581;42.662;23.402;2022-12-10T03:08:17;94662.16;;;9.89;100.00
13029;BME280;6581;42.662;23.402;2022-12-10T03:10:50;94657.94;;;9.81;100.00
13029;BME280;6581;42.662;23.402;2022-12-10T03:13:51;94663.28;;;9.88;100.00
13029;BME280;6581;42.662;23.402;2022-12-10T03:16:23;94661.06;;;9.97;100.00
13029;BME280;6581;42.662;23.402;2022-12-10T03:18:55;94655.00;;;9.96;100.00
13029;BME280;6581;42.662;23.402;2022-12-10T03:21:25;94658.75;;;9.88;100.00
13029;BME280;6581;42.662;23.402;2022-12-10T03:23:53;94655.31;;;9.84;100.00
13029;BME280;6581;42.662;23.402;2022-12-10T03:26:21;94641.38;;;9.91;100.00
13029;BME280;6581;42.662;23.402;2022-12-10T03:28:51;94648.59;;;9.97;100.00
13029;BME280;6581;42.662;23.402;2022-12-10T03:31:20;94633.09;;;9.96;100.00
13029;BME280;6581;42.662;23.402;2022-12-10T03:33:49;94636.91;;;9.98;100.00
13029;BME280;6581;42.662;23.402;2022-12-10T03:36:19;94641.44;;;9.98;100.00
13029;BME280;6581;42.662;23.402;2022-12-10T03:38:47;94639.91;;;10.00;100.00
13029;BME280;6581;42.662;23.402;2022-12-10T03:41:14;94642.59;;;10.04;100.00
13029;BME280;6581;42.662;23.402;2022-12-10T03:43:52;94643.34;;;10.04;100.00
13029;BME280;6581;42.662;23.402;2022-12-10T03:46:19;94635.47;;;10.11;100.00
13029;BME280;6581;42.662;23.402;2022-12-10T03:48:46;94626.81;;;10.18;100.00
13029;BME280;6581;42.662;23.402;2022-12-10T03:51:15;94630.25;;;10.22;100.00
13029;BME280;6581;42.662;23.402;2022-12-10T03:53:43;94633.63;;;10.19;100.00
13029;BME280;6581;42.662;23.402;2022-12-10T03:56:10;94626.47;;;10.27;100.00
13029;BME280;6581;42.662;23.402;2022-12-10T03:58:37;94625.25;;;10.13;100.00
13029;BME280;6581;42.662;23.402;2022-12-10T04:01:05;94615.41;;;10.10;100.00
13029;BME280;6581;42.662;23.402;2022-12-10T04:03:34;94627.22;;;10.20;100.00
13029;BME280;6581;42.662;23.402;2022-12-10T04:06:02;94607.94;;;10.19;100.00
13029;BME280;6581;42.662;23.402;2022-12-10T04:08:31;94608.59;;;10.09;100.00
13029;BME280;6581;42.662;23.402;2022-12-10T04:11:03;94614.22;;;9.97;100.00
13029;BME280;6581;42.662;23.402;2022-12-10T04:13:32;94619.13;;;9.99;100.00
13029;BME280;6581;42.662;23.402;2022-12-10T04:16:16;94609.34;;;10.03;100.00
13029;BME280;6581;42.662;23.402;2022-12-10T04:18:58;94607.41;;;9.96;100.00
13029;BME280;6581;42.662;23.402;2022-12-10T04:21:25;94618.75;;;9.97;100.00
13029;BME280;6581;42.662;23.402;2022-12-10T04:24:12;94613.13;;;10.09;100.00
13029;BME280;6581;42.662;23.402;2022-12-10T04:26:59;94613.47;;;10.04;100.00
13029;BME280;6581;42.662;23.402;2022-12-10T04:29:29;94617.28;;;10.10;100.00
13029;BME280;6581;42.662;23.402;2022-12-10T04:31:57;94624.81;;;10.04;100.00
13029;BME280;6581;42.662;23.402;2022-12-10T04:34:25;94627.78;;;9.96;100.00
13029;BME280;6581;42.662;23.402;2022-12-10T04:36:52;94622.91;;;9.98;100.00
13029;BME280;6581;42.662;23.402;2022-12-10T04:39:20;94630.44;;;9.96;100.00
13029;BME280;6581;42.662;23.402;2022-12-10T04:42:13;94631.94;;;9.93;100.00
13029;BME280;6581;42.662;23.402;2022-12-10T04:44:40;94636.06;;;9.87;100.00
13029;BME280;6581;42.662;23.402;2022-12-10T04:47:09;94633.03;;;9.85;100.00
13029;BME280;6581;42.662;23.402;2022-12-10T04:49:36;94626.56;;;9.79;100.00
13029;BME280;6581;42.662;23.402;2022-12-10T04:52:06;94639.69;;;9.65;100.00
13029;BME280;6581;42.662;23.402;2022-12-10T04:54:35;94647.63;;;9.68;100.00
13029;BME280;6581;42.662;23.402;2022-12-10T04:57:02;94641.63;;;9.71;100.00
13029;BME280;6581;42.662;23.402;2022-12-10T04:59:30;94637.06;;;9.68;100.00
13029;BME280;6581;42.662;23.402;2022-12-10T05:01:57;94632.88;;;9.67;100.00
13029;BME280;6581;42.662;23.402;2022-12-10T05:04:24;94643.88;;;9.73;100.00
13029;BME280;6581;42.662;23.402;2022-12-10T05:06:51;94625.41;;;9.76;100.00
13029;BME280;6581;42.662;23.402;2022-12-10T05:09:19;94619.41;;;9.83;100.00
13029;BME280;6581;42.662;23.402;2022-12-10T05:11:47;94634.50;;;9.83;100.00
13029;BME280;6581;42.662;23.402;2022-12-10T05:14:15;94632.63;;;9.79;100.00
13029;BME280;6581;42.662;23.402;2022-12-10T05:16:42;94643.91;;;9.76;100.00
13029;BME280;6581;42.662;23.402;2022-12-10T05:19:10;94638.25;;;9.74;100.00
13029;BME280;6581;42.662;23.402;2022-12-10T05:21:37;94634.84;;;9.77;100.00
13029;BME280;6581;42.662;23.402;2022-12-10T05:24:22;94634.09;;;9.77;100.00
13029;BME280;6581;42.662;23.402;2022-12-10T05:26:52;94629.19;;;9.75;100.00
13029;BME280;6581;42.662;23.402;2022-12-10T05:29:19;94612.56;;;9.75;100.00
13029;BME280;6581;42.662;23.402;2022-12-10T05:31:46;94595.19;;;9.77;100.00
13029;BME280;6581;42.662;23.402;2022-12-10T05:34:13;94604.22;;;9.73;100.00
13029;BME280;6581;42.662;23.402;2022-12-10T05:36:40;94618.19;;;9.70;100.00
13029;BME280;6581;42.662;23.402;2022-12-10T05:39:10;94611.38;;;9.72;100.00
13029;BME280;6581;42.662;23.402;2022-12-10T05:41:38;94611.38;;;9.69;100.00
13029;BME280;6581;42.662;23.402;2022-12-10T05:44:08;94621.94;;;9.69;100.00
13029;BME280;6581;42.662;23.402;2022-12-10T05:46:35;94629.84;;;9.62;100.00
13029;BME280;6581;42.662;23.402;2022-12-10T05:49:04;94637.03;;;9.65;100.00
13029;BME280;6581;42.662;23.402;2022-12-10T05:51:56;94635.03;;;9.51;100.00
13029;BME280;6581;42.662;23.402;2022-12-10T05:54:24;94637.69;;;9.51;100.00
13029;BME280;6581;42.662;23.402;2022-12-10T05:56:52;94638.81;;;9.54;100.00
13029;BME280;6581;42.662;23.402;2022-12-10T05:59:21;94632.53;;;9.69;100.00
13029;BME280;6581;42.662;23.402;2022-12-10T06:01:48;94636.38;;;9.78;100.00
13029;BME280;6581;42.662;23.402;2022-12-10T06:04:15;94647.00;;;9.86;100.00
13029;BME280;6581;42.662;23.402;2022-12-10T06:06:43;94647.38;;;9.84;100.00
13029;BME280;6581;42.662;23.402;2022-12-10T06:09:15;94644.00;;;9.87;100.00
13029;BME280;6581;42.662;23.402;2022-12-10T06:11:42;94651.25;;;9.97;100.00
13029;BME280;6581;42.662;23.402;2022-12-10T06:14:10;94642.97;;;10.02;100.00
13029;BME280;6581;42.662;23.402;2022-12-10T06:16:46;94632.06;;;10.11;100.00
13029;BME280;6581;42.662;23.402;2022-12-10T06:19:14;94624.47;;;10.06;100.00
13029;BME280;6581;42.662;23.402;2022-12-10T06:21:41;94634.81;;;10.25;100.00
13029;BME280;6581;42.662;23.402;2022-12-10T06:24:09;94635.16;;;10.23;100.00
13029;BME280;6581;42.662;23.402;2022-12-10T06:26:36;94643.41;;;10.15;100.00
13029;BME280;6581;42.662;23.402;2022-12-10T06:29:03;94639.25;;;10.14;100.00
13029;BME280;6581;42.662;23.402;2022-12-10T06:31:31;94626.75;;;10.11;100.00
13029;BME280;6581;42.662;23.402;2022-12-10T06:34:00;94632.53;;;10.23;100.00
13029;BME280;6581;42.662;23.402;2022-12-10T06:36:27;94631.31;;;10.14;100.00
13029;BME280;6581;42.662;23.402;2022-12-10T06:38:54;94617.75;;;10.19;100.00
13029;BME280;6581;42.662;23.402;2022-12-10T06:41:22;94616.28;;;10.25;100.00
13029;BME280;6581;42.662;23.402;2022-12-10T06:44:14;94624.22;;;10.25;100.00
13029;BME280;6581;42.662;23.402;2022-12-10T06:46:41;94626.09;;;10.21;100.00
13029;BME280;6581;42.662;23.402;2022-12-10T06:49:21;94627.97;;;10.17;100.00
13029;BME280;6581;42.662;23.402;2022-12-10T06:51:50;94636.69;;;10.21;100.00
13029;BME280;6581;42.662;23.402;2022-12-10T06:54:18;94625.69;;;10.19;100.00
13029;BME280;6581;42.662;23.402;2022-12-10T06:56:45;94641.22;;;10.20;100.00
13029;BME280;6581;42.662;23.402;2022-12-10T06:59:12;94659.28;;;10.11;100.00
13029;BME280;6581;42.662;23.402;2022-12-10T07:01:40;94655.22;;;10.21;100.00
13029;BME280;6581;42.662;23.402;2022-12-10T07:04:08;94651.81;;;10.24;100.00
13029;BME280;6581;42.662;23.402;2022-12-10T07:06:36;94646.19;;;10.29;100.00
13029;BME280;6581;42.662;23.402;2022-12-10T07:09:03;94644.66;;;10.28;100.00
13029;BME280;6581;42.662;23.402;2022-12-10T07:11:31;94646.53;;;10.24;100.00
13029;BME280;6581;42.662;23.402;2022-12-10T07:13:58;94651.41;;;10.22;100.00
13029;BME280;6581;42.662;23.402;2022-12-10T07:16:27;94651.81;;;10.24;100.00
13029;BME280;6581;42.662;23.402;2022-12-10T07:18:57;94662.38;;;10.20;100.00
13029;BME280;6581;42.662;23.402;2022-12-10T07:21:26;94645.75;;;10.23;100.00
13029;BME280;6581;42.662;23.402;2022-12-10T07:23:55;94645.38;;;10.21;100.00
13029;BME280;6581;42.662;23.402;2022-12-10T07:26:24;94642.00;;;10.25;100.00
13029;BME280;6581;42.662;23.402;2022-12-10T07:29:16;94620.81;;;10.25;100.00
13029;BME280;6581;42.662;23.402;2022-12-10T07:31:44;94621.25;;;10.34;100.00
13029;BME280;6581;42.662;23.402;2022-12-10T07:34:12;94620.47;;;10.30;100.00
13029;BME280;6581;42.662;23.402;2022-12-10T07:36:39;94605.31;;;10.27;100.00
13029;BME280;6581;42.662;23.402;2022-12-10T07:39:10;94611.41;;;10.34;100.00
13029;BME280;6581;42.662;23.402;2022-12-10T07:41:44;94629.25;;;10.44;100.00
13029;BME280;6581;42.662;23.402;2022-12-10T07:44:12;94623.88;;;10.30;100.00
13029;BME280;6581;42.662;23.402;2022-12-10T07:46:45;94610.59;;;10.23;100.00
13029;BME280;6581;42.662;23.402;2022-12-10T07:49:37;94602.34;;;10.35;100.00
13029;BME280;6581;42.662;23.402;2022-12-10T07:52:04;94611.47;;;10.45;100.00
13029;BME280;6581;42.662;23.402;2022-12-10T07:54:32;94616.78;;;10.59;100.00
13029;BME280;6581;42.662;23.402;2022-12-10T07:56:59;94623.59;;;10.53;100.00
13029;BME280;6581;42.662;23.402;2022-12-10T07:59:26;94617.88;;;10.44;100.00
13029;BME280;6581;42.662;23.402;2022-12-10T08:01:53;94620.16;;;10.45;100.00
13029;BME280;6581;42.662;23.402;2022-12-10T08:04:21;94615.25;;;10.47;100.00
13029;BME280;6581;42.662;23.402;2022-12-10T08:07:13;94600.16;;;10.58;100.00
13029;BME280;6581;42.662;23.402;2022-12-10T08:09:44;94591.47;;;10.68;100.00
13029;BME280;6581;42.662;23.402;2022-12-10T08:12:11;94597.56;;;10.80;100.00
13029;BME280;6581;42.662;23.402;2022-12-10T08:14:38;94584.34;;;10.80;100.00
13029;BME280;6581;42.662;23.402;2022-12-10T08:17:06;94579.47;;;11.03;100.00
13029;BME280;6581;42.662;23.402;2022-12-10T08:19:33;94593.84;;;11.09;100.00
13029;BME280;6581;42.662;23.402;2022-12-10T08:22:03;94601.81;;;11.16;100.00
13029;BME280;6581;42.662;23.402;2022-12-10T08:24:30;94577.97;;;11.16;100.00
13029;BME280;6581;42.662;23.402;2022-12-10T08:26:59;94595.00;;;11.19;100.00
13029;BME280;6581;42.662;23.402;2022-12-10T08:29:26;94588.56;;;11.16;100.00
13029;BME280;6581;42.662;23.402;2022-12-10T08:31:54;94563.91;;;11.05;100.00
13029;BME280;6581;42.662;23.402;2022-12-10T08:34:22;94579.81;;;10.98;100.00
13029;BME280;6581;42.662;23.402;2022-12-10T08:36:49;94585.88;;;11.05;100.00
13029;BME280;6581;42.662;23.402;2022-12-10T08:39:32;94582.09;;;11.06;100.00
13029;BME280;6581;42.662;23.402;2022-12-10T08:42:01;94570.41;;;11.18;100.00
13029;BME280;6581;42.662;23.402;2022-12-10T08:44:28;94581.75;;;11.22;100.00
13029;BME280;6581;42.662;23.402;2022-12-10T08:46:57;94585.94;;;11.27;100.00
13029;BME280;6581;42.662;23.402;2022-12-10T08:49:25;94572.28;;;11.35;100.00
13029;BME280;6581;42.662;23.402;2022-12-10T08:51:52;94549.94;;;11.36;100.00
13029;BME280;6581;42.662;23.402;2022-12-10T08:54:19;94538.19;;;11.37;100.00
13029;BME280;6581;42.662;23.402;2022-12-10T08:56:46;94532.88;;;11.51;100.00
13029;BME280;6581;42.662;23.402;2022-12-10T08:59:16;94539.28;;;11.65;100.00
13029;BME280;6581;42.662;23.402;2022-12-10T09:01:43;94539.69;;;11.74;100.00
13029;BME280;6581;42.662;23.402;2022-12-10T09:04:10;94540.06;;;11.65;100.00
13029;BME280;6581;42.662;23.402;2022-12-10T09:06:38;94548.75;;;11.69;100.00
13029;BME280;6581;42.662;23.402;2022-12-10T09:09:06;94552.94;;;11.74;100.00
13029;BME280;6581;42.662;23.402;2022-12-10T09:11:34;94543.47;;;11.90;100.00
13029;BME280;6581;42.662;23.402;2022-12-10T09:14:02;94537.41;;;11.79;100.00
13029;BME280;6581;42.662;23.402;2022-12-10T09:16:32;94525.25;;;11.92;100.00
13029;BME280;6581;42.662;23.402;2022-12-10T09:19:01;94522.94;;;12.02;100.00
13029;BME280;6581;42.662;23.402;2022-12-10T09:21:28;94527.53;;;11.83;100.00
13029;BME280;6581;42.662;23.402;2022-12-10T09:23:56;94521.47;;;11.83;100.00
13029;BME280;6581;42.662;23.402;2022-12-10T09:26:24;94533.19;;;12.03;100.00
13029;BME280;6581;42.662;23.402;2022-12-10T09:28:52;94535.81;;;12.14;100.00
13029;BME280;6581;42.662;23.402;2022-12-10T09:31:20;94530.44;;;12.31;100.00
13029;BME280;6581;42.662;23.402;2022-12-10T09:33:50;94529.34;;;12.22;100.00
13029;BME280;6581;42.662;23.402;2022-12-10T09:36:18;94519.78;;;12.35;100.00
13029;BME280;6581;42.662;23.402;2022-12-10T09:38:46;94522.00;;;12.51;100.00
13029;BME280;6581;42.662;23.402;2022-12-10T09:41:39;94519.75;;;12.38;100.00
13029;BME280;6581;42.662;23.402;2022-12-10T09:44:12;94493.59;;;12.40;100.00
13029;BME280;6581;42.662;23.402;2022-12-10T09:46:48;94481.41;;;12.50;100.00
13029;BME280;6581;42.662;23.402;2022-12-10T09:49:24;94486.63;;;12.64;100.00
13029;BME280;6581;42.662;23.402;2022-12-10T09:51:59;94484.63;;;12.79;100.00
13029;BME280;6581;42.662;23.402;2022-12-10T09:54:31;94480.00;;;12.90;100.00
13029;BME280;6581;42.662;23.402;2022-12-10T09:57:00;94478.38;;;13.03;100.00
13029;BME280;6581;42.662;23.402;2022-12-10T09:59:36;94483.22;;;13.15;100.00
13029;BME280;6581;42.662;23.402;2022-12-10T10:02:20;94472.53;;;13.26;100.00
13029;BME280;6581;42.662;23.402;2022-12-10T10:04:51;94477.88;;;13.22;100.00
13029;BME280;6581;42.662;23.402;2022-12-10T10:07:29;94482.34;;;13.29;100.00
13029;BME280;6581;42.662;23.402;2022-12-10T10:09:59;94478.09;;;13.39;100.00
13029;BME280;6581;42.662;23.402;2022-12-10T10:12:28;94472.22;;;13.17;100.00
13029;BME280;6581;42.662;23.402;2022-12-10T10:14:57;94460.47;;;13.14;100.00
13029;BME280;6581;42.662;23.402;2022-12-10T10:17:29;94452.34;;;13.32;100.00
13029;BME280;6581;42.662;23.402;2022-12-10T10:20:02;94459.06;;;13.44;100.00
13029;BME280;6581;42.662;23.402;2022-12-10T10:22:29;94475.69;;;13.55;100.00
13029;BME280;6581;42.662;23.402;2022-12-10T10:24:58;94473.81;;;13.52;100.00
13029;BME280;6581;42.662;23.402;2022-12-10T10:27:30;94465.09;;;13.48;100.00
13029;BME280;6581;42.662;23.402;2022-12-10T10:30:17;94452.91;;;13.50;100.00
13029;BME280;6581;42.662;23.402;2022-12-10T10:32:48;94452.00;;;13.64;100.00
13029;BME280;6581;42.662;23.402;2022-12-10T10:35:28;94447.31;;;13.79;100.00
13029;BME280;6581;42.662;23.402;2022-12-10T10:38:07;94443.75;;;13.89;100.00
13029;BME280;6581;42.662;23.402;2022-12-10T10:40:42;94427.34;;;13.94;100.00
13029;BME280;6581;42.662;23.402;2022-12-10T10:43:15;94427.41;;;14.20;100.00
13029;BME280;6581;42.662;23.402;2022-12-10T10:46:12;94425.94;;;14.46;100.00
13029;BME280;6581;42.662;23.402;2022-12-10T10:48:42;94425.06;;;14.53;100.00
13029;BME280;6581;42.662;23.402;2022-12-10T10:51:19;94427.81;;;14.73;100.00
13029;BME280;6581;42.662;23.402;2022-12-10T10:53:50;94431.72;;;14.91;100.00
13029;BME280;6581;42.662;23.402;2022-12-10T10:56:19;94419.09;;;15.19;100.00
13029;BME280;6581;42.662;23.402;2022-12-10T10:58:52;94428.44;;;15.30;100.00
13029;BME280;6581;42.662;23.402;2022-12-10T11:01:21;94416.88;;;15.37;100.00
13029;BME280;6581;42.662;23.402;2022-12-10T11:03:50;94417.47;;;15.25;100.00
13029;BME280;6581;42.662;23.402;2022-12-10T11:06:22;94402.69;;;15.20;100.00
13029;BME280;6581;42.662;23.402;2022-12-10T11:08:51;94394.25;;;15.22;100.00
13029;BME280;6581;42.662;23.402;2022-12-10T11:11:32;94391.59;;;15.22;100.00
13029;BME280;6581;42.662;23.402;2022-12-10T11:14:14;94389.50;;;15.33;100.00
13029;BME280;6581;42.662;23.402;2022-12-10T11:16:42;94390.31;;;15.53;100.00
13029;BME280;6581;42.662;23.402;2022-12-10T11:19:19;94375.94;;;15.67;100.00
13029;BME280;6581;42.662;23.402;2022-12-10T11:21:48;94371.00;;;15.65;99.90
13029;BME280;6581;42.662;23.402;2022-12-10T11:24:18;94361.63;;;15.57;99.01
13029;BME280;6581;42.662;23.402;2022-12-10T11:26:57;94349.91;;;15.51;98.24
13029;BME280;6581;42.662;23.402;2022-12-10T11:29:40;94336.50;;;15.55;99.17
13029;BME280;6581;42.662;23.402;2022-12-10T11:32:26;94350.03;;;15.44;95.88
13029;BME280;6581;42.662;23.402;2022-12-10T11:35:04;94338.81;;;15.33;96.27
13029;BME280;6581;42.662;23.402;2022-12-10T11:37:46;94342.09;;;15.21;96.94
13029;BME280;6581;42.662;23.402;2022-12-10T11:40:33;94343.09;;;15.07;98.05
13029;BME280;6581;42.662;23.402;2022-12-10T11:43:20;94334.72;;;15.05;100.00
13029;BME280;6581;42.662;23.402;2022-12-10T11:46:00;94331.81;;;15.19;99.83
13029;BME280;6581;42.662;23.402;2022-12-10T11:48:42;94345.72;;;15.30;100.00
13029;BME280;6581;42.662;23.402;2022-12-10T11:51:19;94344.53;;;15.31;100.00
13029;BME280;6581;42.662;23.402;2022-12-10T11:54:06;94343.72;;;15.34;100.00
13029;BME280;6581;42.662;23.402;2022-12-10T11:56:43;94348.84;;;15.45;100.00
13029;BME280;6581;42.662;23.402;2022-12-10T11:59:17;94335.88;;;15.47;99.52
13029;BME280;6581;42.662;23.402;2022-12-10T12:01:58;94334.03;;;15.64;99.58
13029;BME280;6581;42.662;23.402;2022-12-10T12:04:35;94325.97;;;15.67;97.79
13029;BME280;6581;42.662;23.402;2022-12-10T12:07:25;94323.34;;;15.64;97.47
13029;BME280;6581;42.662;23.402;2022-12-10T12:10:13;94323.50;;;15.76;97.27
13029;BME280;6581;42.662;23.402;2022-12-10T12:12:51;94331.34;;;15.83;97.56
13029;BME280;6581;42.662;23.402;2022-12-10T12:15:22;94334.50;;;15.78;96.26
13029;BME280;6581;42.662;23.402;2022-12-10T12:17:55;94326.16;;;15.76;95.53
13029;BME280;6581;42.662;23.402;2022-12-10T12:20:27;94324.66;;;15.75;95.99
13029;BME280;6581;42.662;23.402;2022-12-10T12:23:02;94310.28;;;15.69;96.96
13029;BME280;6581;42.662;23.402;2022-12-10T12:25:35;94302.47;;;15.59;98.42
13029;BME280;6581;42.662;23.402;2022-12-10T12:28:11;94304.16;;;15.49;99.67
13029;BME280;6581;42.662;23.402;2022-12-10T12:30:39;94302.69;;;15.48;100.00
13029;BME280;6581;42.662;23.402;2022-12-10T12:33:11;94310.63;;;15.51;100.00
13029;BME280;6581;42.662;23.402;2022-12-10T12:35:43;94297.66;;;15.50;100.00
13029;BME280;6581;42.662;23.402;2022-12-10T12:38:23;94280.97;;;15.46;100.00
13029;BME280;6581;42.662;23.402;2022-12-10T12:40:59;94277.97;;;15.44;100.00
13029;BME280;6581;42.662;23.402;2022-12-10T12:43:37;94266.03;;;15.52;100.00
13029;BME280;6581;42.662;23.402;2022-12-10T12:46:12;94261.34;;;15.56;100.00
13029;BME280;6581;42.662;23.402;2022-12-10T12:48:48;94253.47;;;15.49;100.00
13029;BME280;6581;42.662;23.402;2022-12-10T12:51:24;94262.38;;;15.42;100.00
13029;BME280;6581;42.662;23.402;2022-12-10T12:53:54;94260.47;;;15.43;100.00
13029;BME280;6581;42.662;23.402;2022-12-10T12:56:28;94251.34;;;15.40;100.00
13029;BME280;6581;42.662;23.402;2022-12-10T12:59:04;94248.75;;;15.37;100.00
13029;BME280;6581;42.662;23.402;2022-12-10T13:01:39;94250.41;;;15.31;100.00
13029;BME280;6581;42.662;23.402;2022-12-10T13:04:07;94247.41;;;15.29;100.00
13029;BME280;6581;42.662;23.402;2022-12-10T13:06:36;94240.25;;;15.26;100.00
13029;BME280;6581;42.662;23.402;2022-12-10T13:09:25;94236.72;;;15.29;100.00
13029;BME280;6581;42.662;23.402;2022-12-10T13:12:28;94222.59;;;15.12;100.00
13029;BME280;6581;42.662;23.402;2022-12-10T13:15:11;94232.78;;;14.97;100.00
13029;BME280;6581;42.662;23.402;2022-12-10T13:18:01;94246.78;;;15.01;100.00
13029;BME280;6581;42.662;23.402;2022-12-10T13:20:34;94243.25;;;14.88;100.00